createdAt,value
2018-07-25T00:01:39.142Z,23.38
2018-07-25T00:04:05.498Z,23.23
2018-07-25T00:06:31.811Z,23.23
2018-07-25T00:08:58.117Z,23.27
2018-07-25T00:11:24.469Z,23.20
2018-07-25T00:13:50.781Z,23.33
2018-07-25T00:16:17.093Z,23.48
2018-07-25T00:18:43.403Z,23.54
2018-07-25T00:21:09.713Z,23.49
2018-07-25T00:23:36.027Z,23.56
2018-07-25T00:26:02.338Z,23.58
2018-07-25T00:28:28.659Z,23.58
2018-07-25T00:30:54.968Z,23.61
2018-07-25T00:33:21.277Z,23.53
2018-07-25T00:35:47.628Z,23.54
2018-07-25T00:38:13.987Z,23.51
2018-07-25T00:40:40.301Z,23.57
2018-07-25T00:43:06.653Z,23.67
2018-07-25T00:45:33.007Z,23.53
2018-07-25T00:47:59.312Z,23.45
2018-07-25T00:50:25.667Z,23.44
2018-07-25T00:52:52.037Z,23.48
2018-07-25T00:55:18.401Z,23.53
2018-07-25T00:57:44.696Z,23.58
2018-07-25T01:00:11.060Z,23.63
2018-07-25T01:02:37.399Z,23.67
2018-07-25T01:05:03.716Z,23.63
2018-07-25T01:07:30.030Z,23.69
2018-07-25T01:09:56.345Z,23.78
2018-07-25T01:12:22.662Z,23.80
2018-07-25T01:14:48.968Z,23.82
2018-07-25T01:17:15.286Z,23.84
2018-07-25T01:19:41.602Z,23.89
2018-07-25T01:22:07.907Z,23.95
2018-07-25T01:24:34.227Z,23.95
2018-07-25T01:27:00.554Z,23.89
2018-07-25T01:29:26.864Z,23.74
2018-07-25T01:31:53.174Z,23.76
2018-07-25T01:34:19.520Z,23.89
2018-07-25T01:36:45.843Z,23.91
2018-07-25T01:39:12.168Z,23.94
2018-07-25T01:41:38.525Z,23.99
2018-07-25T01:44:04.838Z,23.97
2018-07-25T01:46:31.148Z,24.01
2018-07-25T01:48:57.457Z,23.89
2018-07-25T01:51:23.774Z,23.90
2018-07-25T01:53:50.085Z,23.80
2018-07-25T01:56:16.396Z,23.79
2018-07-25T01:58:42.705Z,23.86
2018-07-25T02:01:09.012Z,23.85
2018-07-25T02:03:35.326Z,23.85
2018-07-25T02:06:01.637Z,23.82
2018-07-25T02:08:27.998Z,23.87
2018-07-25T02:10:54.317Z,23.64
2018-07-25T02:13:20.627Z,23.44
2018-07-25T02:15:46.935Z,23.40
2018-07-25T02:18:13.247Z,23.36
2018-07-25T02:20:39.580Z,23.37
2018-07-25T02:23:05.904Z,23.30
2018-07-25T02:25:32.219Z,23.29
2018-07-25T02:27:58.535Z,23.19
2018-07-25T02:30:24.857Z,23.06
2018-07-25T02:32:51.177Z,23.17
2018-07-25T02:35:17.499Z,23.32
2018-07-25T02:37:43.812Z,23.24
2018-07-25T02:40:10.116Z,23.26
2018-07-25T02:42:36.463Z,23.33
2018-07-25T02:45:02.752Z,23.23
2018-07-25T02:47:29.061Z,23.08
2018-07-25T02:49:55.375Z,22.91
2018-07-25T02:52:21.685Z,22.81
2018-07-25T02:54:47.991Z,22.80
2018-07-25T02:57:14.303Z,22.86
2018-07-25T02:59:40.632Z,22.92
2018-07-25T03:02:06.949Z,23.20
2018-07-25T03:04:33.306Z,23.34
2018-07-25T03:06:59.612Z,23.34
2018-07-25T03:09:25.922Z,23.15
2018-07-25T03:11:52.238Z,23.11
2018-07-25T03:14:18.552Z,23.24
2018-07-25T03:16:44.892Z,23.14
2018-07-25T03:19:11.182Z,23.12
2018-07-25T03:21:37.488Z,23.12
2018-07-25T03:24:03.843Z,23.09
2018-07-25T03:26:30.152Z,23.26
2018-07-25T03:28:56.459Z,23.37
2018-07-25T03:31:22.792Z,23.35
2018-07-25T03:33:49.085Z,23.51
2018-07-25T03:36:15.397Z,23.68
2018-07-25T03:38:41.782Z,23.73
2018-07-25T03:41:08.144Z,23.79
2018-07-25T03:43:34.458Z,23.85
2018-07-25T03:46:00.764Z,23.90
2018-07-25T03:48:27.080Z,23.96
2018-07-25T03:50:53.390Z,23.99
2018-07-25T03:53:19.747Z,24.00
2018-07-25T03:55:46.068Z,23.97
2018-07-25T03:58:12.417Z,23.91
2018-07-25T04:00:38.778Z,23.90
2018-07-25T04:03:05.135Z,23.93
2018-07-25T04:05:31.468Z,23.93
2018-07-25T04:07:57.797Z,23.93
2018-07-25T04:10:24.115Z,23.93
2018-07-25T04:12:50.442Z,23.98
2018-07-25T04:15:16.748Z,23.91
2018-07-25T04:17:43.061Z,23.74
2018-07-25T04:20:09.377Z,23.65
2018-07-25T04:22:35.689Z,23.79
2018-07-25T04:25:02.036Z,23.74
2018-07-25T04:27:28.345Z,23.78
2018-07-25T04:29:54.656Z,23.91
2018-07-25T04:32:20.968Z,23.96
2018-07-25T04:34:47.299Z,23.97
2018-07-25T04:37:13.600Z,23.93
2018-07-25T04:39:39.922Z,23.87
2018-07-25T04:42:06.228Z,23.88
2018-07-25T04:44:32.536Z,23.97
2018-07-25T04:46:58.850Z,24.00
2018-07-25T04:49:25.174Z,24.03
2018-07-25T04:51:51.512Z,24.09
2018-07-25T04:54:17.820Z,24.13
2018-07-25T04:56:44.134Z,24.16
2018-07-25T04:59:10.449Z,24.19
2018-07-25T05:01:36.760Z,24.19
2018-07-25T05:04:03.076Z,24.17
2018-07-25T05:06:29.385Z,24.17
2018-07-25T05:08:55.696Z,24.06
2018-07-25T05:11:22.016Z,23.91
2018-07-25T05:13:48.336Z,23.81
2018-07-25T05:16:14.649Z,23.73
2018-07-25T05:18:40.963Z,23.66
2018-07-25T05:21:07.287Z,23.64
2018-07-25T05:23:33.598Z,23.63
2018-07-25T05:25:59.918Z,23.64
2018-07-25T05:28:26.234Z,23.67
2018-07-25T05:30:52.551Z,23.72
2018-07-25T05:33:18.875Z,23.78
2018-07-25T05:35:45.194Z,23.79
2018-07-25T05:38:11.568Z,23.93
2018-07-25T05:40:37.836Z,24.00
2018-07-25T05:43:04.158Z,24.03
2018-07-25T05:45:30.477Z,24.03
2018-07-25T05:47:56.802Z,24.10
2018-07-25T05:50:23.119Z,24.22
2018-07-25T05:52:49.435Z,24.23
2018-07-25T05:55:15.743Z,24.24
2018-07-25T05:57:42.059Z,24.21
2018-07-25T06:00:08.370Z,24.17
2018-07-25T06:02:34.687Z,24.16
2018-07-25T06:05:00.999Z,24.11
2018-07-25T06:07:27.321Z,24.05
2018-07-25T06:09:53.638Z,24.01
2018-07-25T06:12:20.003Z,23.97
2018-07-25T06:14:46.316Z,23.95
2018-07-25T06:17:12.624Z,23.94
2018-07-25T06:19:38.980Z,23.95
2018-07-25T06:22:05.288Z,23.97
2018-07-25T06:24:31.601Z,23.97
2018-07-25T06:26:57.920Z,23.97
2018-07-25T06:29:24.245Z,23.95
2018-07-25T06:31:50.565Z,23.93
2018-07-25T06:34:16.886Z,23.91
2018-07-25T06:36:43.187Z,23.90
2018-07-25T06:39:09.502Z,23.92
2018-07-25T06:41:35.855Z,23.94
2018-07-25T06:44:02.171Z,23.95
2018-07-25T06:46:28.485Z,23.96
2018-07-25T06:48:54.817Z,23.98
2018-07-25T06:51:21.140Z,23.99
2018-07-25T06:53:47.460Z,24.00
2018-07-25T06:56:13.781Z,23.97
2018-07-25T06:58:40.139Z,23.97
2018-07-25T07:01:06.459Z,23.96
2018-07-25T07:03:32.774Z,23.94
2018-07-25T07:05:59.085Z,23.94
2018-07-25T07:08:25.412Z,23.94
2018-07-25T07:10:51.770Z,23.90
2018-07-25T07:13:18.087Z,23.92
2018-07-25T07:15:44.419Z,23.96
2018-07-25T07:18:10.720Z,24.02
2018-07-25T07:20:37.086Z,24.08
2018-07-25T07:23:03.400Z,24.14
2018-07-25T07:25:29.727Z,24.18
2018-07-25T07:27:56.035Z,24.17
2018-07-25T07:30:22.367Z,24.17
2018-07-25T07:32:48.681Z,24.14
2018-07-25T07:35:15.000Z,24.13
2018-07-25T07:37:41.376Z,24.17
2018-07-25T07:40:07.639Z,24.31
2018-07-25T07:42:33.961Z,24.41
2018-07-25T07:45:00.268Z,24.47
2018-07-25T07:47:26.583Z,24.50
2018-07-25T07:49:52.936Z,24.56
2018-07-25T07:52:19.248Z,24.61
2018-07-25T07:54:45.557Z,24.67
2018-07-25T07:57:11.877Z,24.73
2018-07-25T07:59:38.188Z,24.85
2018-07-25T08:02:04.513Z,24.91
2018-07-25T08:04:30.830Z,24.93
2018-07-25T08:06:57.149Z,24.91
2018-07-25T08:09:23.459Z,24.93
2018-07-25T08:11:49.770Z,25.13
2018-07-25T08:14:16.089Z,25.26
2018-07-25T08:16:42.401Z,25.34
2018-07-25T08:19:08.725Z,25.40
2018-07-25T08:21:35.053Z,25.45
2018-07-25T08:24:01.363Z,25.51
2018-07-25T08:26:27.674Z,25.55
2018-07-25T08:28:53.989Z,25.53
2018-07-25T08:31:20.314Z,25.50
2018-07-25T08:33:46.621Z,25.45
2018-07-25T08:36:12.949Z,25.42
2018-07-25T08:38:39.272Z,25.38
2018-07-25T08:41:05.594Z,25.37
2018-07-25T08:43:31.905Z,25.34
2018-07-25T08:45:58.216Z,25.38
2018-07-25T08:48:24.571Z,25.47
2018-07-25T08:50:50.880Z,25.52
2018-07-25T08:53:17.244Z,25.53
2018-07-25T08:55:43.594Z,25.54
2018-07-25T08:58:09.945Z,25.54
2018-07-25T09:00:36.278Z,25.52
2018-07-25T09:03:02.652Z,25.44
2018-07-25T09:05:28.959Z,25.38
2018-07-25T09:07:55.272Z,25.35
2018-07-25T09:10:21.580Z,25.30
2018-07-25T09:12:48.001Z,25.27
2018-07-25T09:15:14.244Z,25.27
2018-07-25T09:17:40.611Z,25.27
2018-07-25T09:20:06.972Z,25.23
2018-07-25T09:22:33.282Z,25.11
2018-07-25T09:24:59.599Z,25.04
2018-07-25T09:27:25.920Z,24.97
2018-07-25T09:29:52.236Z,24.98
2018-07-25T09:32:18.552Z,24.96
2018-07-25T09:34:44.861Z,24.90
2018-07-25T09:37:11.203Z,24.91
2018-07-25T09:39:37.521Z,24.90
2018-07-25T09:42:03.845Z,24.91
2018-07-25T09:44:30.163Z,24.87
2018-07-25T09:46:56.558Z,24.84
2018-07-25T09:49:22.804Z,24.85
2018-07-25T09:51:49.120Z,24.86
2018-07-25T09:54:15.444Z,24.92
2018-07-25T09:56:41.766Z,24.92
2018-07-25T09:59:08.087Z,24.92
2018-07-25T10:01:34.429Z,24.95
2018-07-25T10:04:00.732Z,24.97
2018-07-25T10:06:27.057Z,25.00
2018-07-25T10:08:53.383Z,25.05
2018-07-25T10:11:19.690Z,25.10
2018-07-25T10:13:46.011Z,25.18
2018-07-25T10:16:12.337Z,25.27
2018-07-25T10:18:38.702Z,25.35
2018-07-25T10:21:05.016Z,25.42
2018-07-25T10:23:31.329Z,25.53
2018-07-25T10:25:57.648Z,25.64
2018-07-25T10:28:23.986Z,25.73
2018-07-25T10:30:50.322Z,25.75
2018-07-25T10:33:16.652Z,25.81
2018-07-25T10:35:42.967Z,25.89
2018-07-25T10:38:09.290Z,25.94
2018-07-25T10:40:35.609Z,26.01
2018-07-25T10:43:01.922Z,26.01
2018-07-25T10:45:28.243Z,26.00
2018-07-25T10:47:54.563Z,25.97
2018-07-25T10:50:20.894Z,25.95
2018-07-25T10:52:47.221Z,25.94
2018-07-25T10:55:13.541Z,25.99
2018-07-25T10:57:39.849Z,25.98
2018-07-25T11:00:06.166Z,26.03
2018-07-25T11:02:32.478Z,26.08
2018-07-25T11:04:58.797Z,26.13
2018-07-25T11:07:25.139Z,26.14
2018-07-25T11:09:51.442Z,26.13
2018-07-25T11:12:17.762Z,26.15
2018-07-25T11:14:44.088Z,26.15
2018-07-25T11:17:10.413Z,26.17
2018-07-25T11:19:36.735Z,26.27
2018-07-25T11:22:03.058Z,26.35
2018-07-25T11:24:29.397Z,26.39
2018-07-25T11:26:55.721Z,26.43
2018-07-25T11:29:22.034Z,26.49
2018-07-25T11:31:48.408Z,26.56
2018-07-25T11:34:14.725Z,26.60
2018-07-25T11:36:41.040Z,26.63
2018-07-25T11:39:07.360Z,26.63
2018-07-25T11:41:33.680Z,26.68
2018-07-25T11:43:59.993Z,26.74
2018-07-25T11:46:26.319Z,26.83
2018-07-25T11:48:52.643Z,26.90
2018-07-25T11:51:18.964Z,27.01
2018-07-25T11:53:45.300Z,27.18
2018-07-25T11:56:11.612Z,27.31
2018-07-25T11:58:37.920Z,27.41
2018-07-25T12:01:04.260Z,27.51
2018-07-25T12:03:30.568Z,27.55
2018-07-25T12:05:56.886Z,27.53
2018-07-25T12:08:23.202Z,27.48
2018-07-25T12:10:49.508Z,27.44
2018-07-25T12:13:15.816Z,27.42
2018-07-25T12:15:42.128Z,27.38
2018-07-25T12:18:08.448Z,27.31
2018-07-25T12:20:34.766Z,27.26
2018-07-25T12:23:01.084Z,27.15
2018-07-25T12:25:27.402Z,27.05
2018-07-25T12:27:53.716Z,27.05
2018-07-25T12:30:20.053Z,27.06
2018-07-25T12:32:46.374Z,27.03
2018-07-25T12:35:12.690Z,27.03
2018-07-25T12:37:39.018Z,27.08
2018-07-25T12:40:05.348Z,27.20
2018-07-25T12:42:31.660Z,27.25
2018-07-25T12:44:57.978Z,27.29
2018-07-25T12:47:26.165Z,27.34
2018-07-25T12:49:50.641Z,27.42
2018-07-25T12:52:16.961Z,27.43
2018-07-25T12:54:43.278Z,27.45
2018-07-25T12:57:09.612Z,27.42
2018-07-25T12:59:35.944Z,27.37
2018-07-25T13:02:02.326Z,27.37
2018-07-25T13:04:28.632Z,27.37
2018-07-25T13:06:54.956Z,27.38
2018-07-25T13:09:21.283Z,27.40
2018-07-25T13:11:47.634Z,27.42
2018-07-25T13:14:13.957Z,27.48
2018-07-25T13:16:40.256Z,27.46
2018-07-25T13:19:06.589Z,27.44
2018-07-25T13:21:32.931Z,27.41
2018-07-25T13:23:59.249Z,27.40
2018-07-25T13:26:25.562Z,27.38
2018-07-25T13:28:51.929Z,27.37
2018-07-25T13:31:18.203Z,27.36
2018-07-25T13:33:44.518Z,27.35
2018-07-25T13:36:10.827Z,27.37
2018-07-25T13:38:37.145Z,27.38
2018-07-25T13:41:03.457Z,27.39
2018-07-25T13:43:29.775Z,27.41
2018-07-25T13:45:56.107Z,27.41
2018-07-25T13:48:22.398Z,27.41
2018-07-25T13:50:48.716Z,27.42
2018-07-25T13:53:15.039Z,27.45
2018-07-25T13:55:41.345Z,27.43
2018-07-25T13:58:07.660Z,27.43
2018-07-25T14:00:33.982Z,27.40
2018-07-25T14:03:00.310Z,27.37
2018-07-25T14:05:26.624Z,27.37
2018-07-25T14:07:53.020Z,27.39
2018-07-25T14:10:19.396Z,27.40
2018-07-25T14:12:45.712Z,27.39
2018-07-25T14:15:12.060Z,27.39
2018-07-25T14:17:38.373Z,27.40
2018-07-25T14:20:04.729Z,27.42
2018-07-25T14:22:31.043Z,27.43
2018-07-25T14:24:57.367Z,27.41
2018-07-25T14:27:23.688Z,27.39
2018-07-25T14:29:50.007Z,27.34
2018-07-25T14:32:16.317Z,27.27
2018-07-25T14:34:42.694Z,27.21
2018-07-25T14:37:08.947Z,27.20
2018-07-25T14:39:35.304Z,27.17
2018-07-25T14:42:01.595Z,27.16
2018-07-25T14:44:27.953Z,27.15
2018-07-25T14:46:54.251Z,27.08
2018-07-25T14:49:20.519Z,27.04
2018-07-25T14:51:46.834Z,27.03
2018-07-25T14:54:13.185Z,27.03
2018-07-25T14:56:39.509Z,27.04
2018-07-25T14:59:05.817Z,27.04
2018-07-25T15:01:32.129Z,27.07
2018-07-25T15:03:58.475Z,27.08
2018-07-25T15:06:24.785Z,27.06
2018-07-25T15:08:51.109Z,27.05
2018-07-25T15:11:17.426Z,27.07
2018-07-25T15:13:43.794Z,27.09
2018-07-25T15:16:10.106Z,27.04
2018-07-25T15:18:36.432Z,27.04
2018-07-25T15:21:02.784Z,27.03
2018-07-25T15:23:29.115Z,26.99
2018-07-25T15:25:55.420Z,26.95
2018-07-25T15:28:21.805Z,26.93
2018-07-25T15:30:48.045Z,26.92
2018-07-25T15:33:14.352Z,26.93
2018-07-25T15:35:40.674Z,26.95
2018-07-25T15:38:06.979Z,26.95
2018-07-25T15:40:33.306Z,26.93
2018-07-25T15:42:59.613Z,26.94
2018-07-25T15:45:26.024Z,26.95
2018-07-25T15:47:52.268Z,26.93
2018-07-25T15:50:18.593Z,26.94
2018-07-25T15:52:44.911Z,26.92
2018-07-25T15:55:11.230Z,26.93
2018-07-25T15:57:37.565Z,26.93
2018-07-25T16:00:03.886Z,26.96
2018-07-25T16:02:30.200Z,26.96
2018-07-25T16:04:56.530Z,26.97
2018-07-25T16:07:22.846Z,27.04
2018-07-25T16:09:49.157Z,27.13
2018-07-25T16:12:15.482Z,27.16
2018-07-25T16:14:41.802Z,27.17
2018-07-25T16:17:08.192Z,27.15
2018-07-25T16:19:34.456Z,27.13
2018-07-25T16:22:00.805Z,27.11
2018-07-25T16:24:27.214Z,27.06
2018-07-25T16:26:53.511Z,27.05
2018-07-25T16:29:19.829Z,27.03
2018-07-25T16:31:46.136Z,26.99
2018-07-25T16:34:12.463Z,26.93
2018-07-25T16:36:38.758Z,26.82
2018-07-25T16:39:05.072Z,26.70
2018-07-25T16:41:31.388Z,26.61
2018-07-25T16:43:57.717Z,26.55
2018-07-25T16:46:39.062Z,26.51
2018-07-25T16:49:05.369Z,26.43
2018-07-25T16:51:31.680Z,26.41
2018-07-25T16:53:57.985Z,26.52
2018-07-25T16:56:24.316Z,26.61
2018-07-25T16:58:50.631Z,26.65
2018-07-25T17:01:16.959Z,26.67
2018-07-25T17:03:43.270Z,26.65
2018-07-25T17:06:09.585Z,26.69
2018-07-25T17:08:35.897Z,26.72
2018-07-25T17:11:02.211Z,26.75
2018-07-25T17:13:28.666Z,26.75
2018-07-25T17:15:55.012Z,26.76
2018-07-25T17:18:21.396Z,26.75
2018-07-25T17:20:47.727Z,26.75
2018-07-25T17:23:14.038Z,26.74
2018-07-25T17:25:40.349Z,26.75
2018-07-25T17:28:06.661Z,26.73
2018-07-25T17:30:32.983Z,26.72
2018-07-25T17:32:59.309Z,26.72
2018-07-25T17:35:25.750Z,26.70
2018-07-25T17:37:51.975Z,26.69
2018-07-25T17:40:18.297Z,26.68
2018-07-25T17:42:44.616Z,26.66
2018-07-25T17:45:10.923Z,26.64
2018-07-25T17:47:37.247Z,26.63
2018-07-25T17:50:03.563Z,26.60
2018-07-25T17:52:29.874Z,26.56
2018-07-25T17:54:56.240Z,26.56
2018-07-25T17:57:22.559Z,26.56
2018-07-25T17:59:48.871Z,26.55
2018-07-25T18:02:15.198Z,26.54
2018-07-25T18:04:41.530Z,26.52
2018-07-25T18:07:07.838Z,26.51
2018-07-25T18:09:34.162Z,26.49
2018-07-25T18:12:00.497Z,26.47
2018-07-25T18:14:26.821Z,26.45
2018-07-25T18:16:53.135Z,26.44
2018-07-25T18:19:19.444Z,26.42
2018-07-25T18:21:45.777Z,26.41
2018-07-25T18:24:12.962Z,26.38
2018-07-25T18:26:39.291Z,26.38
2018-07-25T18:29:05.618Z,26.37
2018-07-25T18:31:31.940Z,26.36
2018-07-25T18:33:58.244Z,26.34
2018-07-25T18:36:24.581Z,26.33
2018-07-25T18:38:50.904Z,26.31
2018-07-25T18:41:17.237Z,26.30
2018-07-25T18:43:46.136Z,26.30
2018-07-25T18:46:12.514Z,26.29
2018-07-25T18:51:33.161Z,26.27
2018-07-25T18:56:44.812Z,26.27
2018-07-25T18:59:11.134Z,26.25
2018-07-25T19:01:37.444Z,26.24
2018-07-25T19:04:03.824Z,26.23
2018-07-25T19:06:30.137Z,26.24
2018-07-25T19:08:56.465Z,26.24
2018-07-25T19:11:22.789Z,26.24
2018-07-25T19:13:49.123Z,26.24
2018-07-25T19:16:15.500Z,26.24
2018-07-25T19:18:41.825Z,26.25
2018-07-25T19:21:08.156Z,26.24
2018-07-25T19:23:34.482Z,26.19
2018-07-25T19:26:00.799Z,26.18
2018-07-25T19:28:27.123Z,26.12
2018-07-25T19:30:53.432Z,26.13
2018-07-25T19:33:19.759Z,26.08
2018-07-25T19:35:46.093Z,26.09
2018-07-25T19:38:12.379Z,26.08
2018-07-25T19:40:38.692Z,26.09
2018-07-25T19:43:05.070Z,26.09
2018-07-25T19:45:31.393Z,26.08
2018-07-25T19:47:57.719Z,26.05
2018-07-25T19:50:24.041Z,26.02
2018-07-25T19:55:19.334Z,25.92
2018-07-25T19:57:45.658Z,25.94
2018-07-25T20:00:16.384Z,25.95
2018-07-25T20:02:39.662Z,25.95
2018-07-25T20:05:05.996Z,25.92
2018-07-25T20:07:32.309Z,25.83
2018-07-25T20:09:58.675Z,25.77
2018-07-25T20:12:24.986Z,25.74
2018-07-25T20:14:51.350Z,25.72
2018-07-25T20:17:17.659Z,25.67
2018-07-25T20:19:44.009Z,25.63
2018-07-25T20:22:10.293Z,25.61
2018-07-25T20:24:36.640Z,25.61
2018-07-25T20:27:02.948Z,25.65
2018-07-25T20:29:29.263Z,25.64
2018-07-25T20:31:55.580Z,25.60
2018-07-25T20:34:21.893Z,25.59
2018-07-25T20:36:48.210Z,25.58
2018-07-25T20:39:14.575Z,25.62
2018-07-25T20:41:40.963Z,25.67
2018-07-25T20:44:07.271Z,25.71
2018-07-25T20:46:33.580Z,25.73
2018-07-25T20:48:59.890Z,25.73
2018-07-25T20:51:26.219Z,25.68
2018-07-25T20:53:52.547Z,25.67
2018-07-25T20:56:18.856Z,25.66
2018-07-25T20:58:45.164Z,25.66
2018-07-25T21:01:11.477Z,25.67
2018-07-25T21:03:37.789Z,25.65
2018-07-25T21:06:04.104Z,25.64
2018-07-25T21:08:30.430Z,25.62
2018-07-25T21:10:56.765Z,25.57
2018-07-25T21:13:23.066Z,25.53
2018-07-25T21:15:49.395Z,25.52
2018-07-25T21:18:15.718Z,25.51
2018-07-25T21:20:42.028Z,25.50
2018-07-25T21:23:08.339Z,25.51
2018-07-25T21:25:34.697Z,25.52
2018-07-25T21:28:01.008Z,25.55
2018-07-25T21:30:27.325Z,25.55
2018-07-25T21:32:53.675Z,25.53
2018-07-25T21:35:19.986Z,25.49
2018-07-25T21:37:46.286Z,25.45
2018-07-25T21:40:12.611Z,25.43
2018-07-25T21:42:38.920Z,25.42
2018-07-25T21:45:05.227Z,25.40
2018-07-25T21:47:31.548Z,25.40
2018-07-25T21:49:57.853Z,25.40
2018-07-25T21:52:24.162Z,25.38
2018-07-25T21:54:50.468Z,25.35
2018-07-25T21:57:16.770Z,25.29
2018-07-25T21:59:43.084Z,25.28
2018-07-25T22:02:09.391Z,25.30
2018-07-25T22:04:35.733Z,25.30
2018-07-25T22:07:02.035Z,25.32
2018-07-25T22:09:28.394Z,25.36
2018-07-25T22:11:54.707Z,25.38
2018-07-25T22:14:21.017Z,25.38
2018-07-25T22:16:47.335Z,25.43
2018-07-25T22:19:13.677Z,25.42
2018-07-25T22:21:39.985Z,25.43
2018-07-25T22:24:06.333Z,25.44
2018-07-25T22:26:32.681Z,25.43
2018-07-25T22:28:58.996Z,25.45
2018-07-25T22:31:25.305Z,25.43
2018-07-25T22:33:51.617Z,25.40
2018-07-25T22:36:17.928Z,25.38
2018-07-25T22:38:44.241Z,25.40
2018-07-25T22:41:10.572Z,25.27
2018-07-25T22:43:36.885Z,25.13
2018-07-25T22:46:03.195Z,25.16
2018-07-25T22:48:29.539Z,25.19
2018-07-25T22:50:55.815Z,25.23
2018-07-25T22:53:22.128Z,25.25
2018-07-25T22:55:48.441Z,25.23
2018-07-25T22:58:14.761Z,25.23
2018-07-25T23:00:41.077Z,25.20
2018-07-25T23:03:07.381Z,25.18
2018-07-25T23:05:33.691Z,25.12
2018-07-25T23:07:59.999Z,25.10
2018-07-25T23:10:26.314Z,25.07
2018-07-25T23:12:52.624Z,25.08
2018-07-25T23:15:18.934Z,25.06
2018-07-25T23:17:45.247Z,25.09
2018-07-25T23:20:11.566Z,25.12
2018-07-25T23:22:37.875Z,25.13
2018-07-25T23:25:04.195Z,25.17
2018-07-25T23:27:30.504Z,25.18
2018-07-25T23:29:56.817Z,25.19
2018-07-25T23:32:23.127Z,25.16
2018-07-25T23:34:49.483Z,25.13
2018-07-25T23:37:15.825Z,25.09
2018-07-25T23:39:42.108Z,25.08
2018-07-25T23:42:08.420Z,25.06
2018-07-25T23:44:34.735Z,25.08
2018-07-25T23:47:01.045Z,25.08
2018-07-25T23:49:27.360Z,25.08
2018-07-25T23:51:53.668Z,25.10
2018-07-25T23:54:20.015Z,25.07
2018-07-25T23:56:46.324Z,25.04
2018-07-25T23:59:12.642Z,25.03
